createdAt,value
2023-01-03T00:03:52.197Z,100119.69
2023-01-03T00:07:55.045Z,100138.97
2023-01-03T00:11:56.453Z,100144.03
2023-01-03T00:15:57.856Z,100134.78
2023-01-03T00:19:59.461Z,100144.25
2023-01-03T00:24:02.782Z,100140.09
2023-01-03T00:28:04.656Z,100142.84
2023-01-03T00:32:06.479Z,100150.00
2023-01-03T00:36:09.658Z,100155.47
2023-01-03T00:40:12.598Z,100159.25
2023-01-03T00:44:14.193Z,100162.63
2023-01-03T00:48:15.578Z,100161.34
2023-01-03T00:52:16.994Z,100171.00
2023-01-03T00:56:22.874Z,100172.69
2023-01-03T01:00:24.172Z,100168.06
2023-01-03T01:04:27.738Z,100176.63
2023-01-03T01:08:29.132Z,100188.38
2023-01-03T01:12:31.859Z,100194.03
2023-01-03T01:16:33.335Z,100199.88
2023-01-03T01:20:34.753Z,100208.69
2023-01-03T01:24:36.927Z,100217.66
2023-01-03T01:28:40.324Z,100225.00
2023-01-03T01:32:41.749Z,100230.44
2023-01-03T01:36:45.163Z,100233.56
2023-01-03T01:40:46.657Z,100234.03
2023-01-03T01:44:53.421Z,100236.13
2023-01-03T01:48:58.782Z,100240.56
2023-01-03T01:53:04.453Z,100252.91
2023-01-03T01:57:06.971Z,100255.00
2023-01-03T02:01:12.813Z,100258.16
2023-01-03T02:05:15.159Z,100258.13
2023-01-03T02:09:16.859Z,100262.06
2023-01-03T02:13:26.483Z,100267.28
2023-01-03T02:17:41.231Z,100266.88
2023-01-03T02:22:20.603Z,100278.59
2023-01-03T02:26:48.408Z,100279.03
2023-01-03T02:30:54.310Z,100280.69
2023-01-03T02:35:04.194Z,100283.66
2023-01-03T02:39:13.432Z,100277.59
2023-01-03T02:43:21.122Z,100282.81
2023-01-03T02:47:27.710Z,100280.34
2023-01-03T02:51:35.291Z,100282.44
2023-01-03T02:55:39.025Z,100276.94
2023-01-03T02:59:46.725Z,100279.84
2023-01-03T03:03:50.544Z,100284.91
2023-01-03T03:07:52.564Z,100285.97
2023-01-03T03:11:54.707Z,100284.28
2023-01-03T03:16:02.042Z,100286.13
2023-01-03T03:20:14.363Z,100288.25
2023-01-03T03:24:21.902Z,100296.28
2023-01-03T03:28:28.559Z,100288.31
2023-01-03T03:32:32.662Z,100298.78
2023-01-03T03:36:41.504Z,100290.44
2023-01-03T03:40:55.966Z,100290.88
2023-01-03T03:45:03.215Z,100304.66
2023-01-03T03:49:10.100Z,100314.28
2023-01-03T03:53:14.459Z,100323.91
2023-01-03T03:57:22.013Z,100326.03
2023-01-03T04:01:26.478Z,100328.78
2023-01-03T04:05:31.973Z,100332.34
2023-01-03T04:09:34.788Z,100320.25
2023-01-03T04:13:37.938Z,100330.31
2023-01-03T04:17:39.386Z,100332.63
2023-01-03T04:21:40.784Z,100334.88
2023-01-03T04:25:43.538Z,100335.69
2023-01-03T04:29:44.954Z,100345.72
2023-01-03T04:33:46.417Z,100352.66
2023-01-03T04:37:47.823Z,100345.34
2023-01-03T04:41:50.552Z,100357.50
2023-01-03T04:45:52.104Z,100361.00
2023-01-03T04:49:53.571Z,100371.66
2023-01-03T04:53:55.327Z,100373.75
2023-01-03T04:57:58.060Z,100375.63
2023-01-03T05:01:59.677Z,100390.88
2023-01-03T05:06:02.306Z,100392.19
2023-01-03T05:10:04.093Z,100387.44
2023-01-03T05:14:12.473Z,100395.13
2023-01-03T05:18:16.119Z,100396.41
2023-01-03T05:22:17.508Z,100389.75
2023-01-03T05:26:21.586Z,100404.81
2023-01-03T05:30:24.812Z,100403.94
2023-01-03T05:34:26.242Z,100413.47
2023-01-03T05:38:27.658Z,100412.81
2023-01-03T05:42:29.051Z,100416.91
2023-01-03T05:46:32.399Z,100429.09
2023-01-03T05:50:34.047Z,100432.66
2023-01-03T05:54:35.471Z,100437.94
2023-01-03T05:58:36.899Z,100438.72
2023-01-03T06:02:39.707Z,100452.66
2023-01-03T06:06:41.184Z,100452.22
2023-01-03T06:10:42.586Z,100449.22
2023-01-03T06:14:44.141Z,100451.13
2023-01-03T06:18:46.894Z,100452.84
2023-01-03T06:22:48.524Z,100449.69
2023-01-03T06:26:49.958Z,100453.97
2023-01-03T06:30:51.365Z,100466.53
2023-01-03T06:34:54.149Z,100455.75
2023-01-03T06:38:55.589Z,100462.53
2023-01-03T06:42:57.166Z,100466.28
2023-01-03T06:46:59.559Z,100468.38
2023-01-03T06:51:02.336Z,100467.84
2023-01-03T06:55:04.237Z,100466.22
2023-01-03T06:59:05.645Z,100473.13
2023-01-03T07:03:11.472Z,100472.06
2023-01-03T07:07:14.561Z,100472.06
2023-01-03T07:11:16.005Z,100481.34
2023-01-03T07:15:17.402Z,100492.38
2023-01-03T07:19:19.856Z,100495.94
2023-01-03T07:23:22.627Z,100486.56
2023-01-03T07:27:24.124Z,100486.94
2023-01-03T07:31:25.662Z,100492.78
2023-01-03T07:35:27.104Z,100501.03
2023-01-03T07:39:29.862Z,100501.91
2023-01-03T07:43:31.412Z,100513.38
2023-01-03T07:47:32.854Z,100514.91
2023-01-03T07:51:34.332Z,100519.72
2023-01-03T07:55:37.446Z,100528.78
2023-01-03T07:59:39.105Z,100529.91
2023-01-03T08:03:41.732Z,100528.88
2023-01-03T08:07:43.164Z,100531.50
2023-01-03T08:11:45.915Z,100534.59
2023-01-03T08:15:49.201Z,100532.38
2023-01-03T08:19:50.643Z,100537.81
2023-01-03T08:23:52.142Z,100539.53
2023-01-03T08:27:57.709Z,100546.25
2023-01-03T08:31:59.320Z,100545.56
2023-01-03T08:36:03.734Z,100552.47
2023-01-03T08:40:06.548Z,100549.13
2023-01-03T08:44:10.420Z,100557.78
2023-01-03T08:48:12.284Z,100554.97
2023-01-03T08:52:13.692Z,100552.53
2023-01-03T08:56:15.120Z,100556.25
2023-01-03T09:00:18.391Z,100562.19
2023-01-03T09:04:19.875Z,100574.66
2023-01-03T09:08:21.289Z,100565.19
2023-01-03T09:12:22.709Z,100571.66
2023-01-03T09:16:25.521Z,100587.94
2023-01-03T09:20:26.956Z,100580.09
2023-01-03T09:24:28.440Z,100587.63
2023-01-03T09:28:30.142Z,100596.03
2023-01-03T09:32:32.866Z,100596.94
2023-01-03T09:36:34.307Z,100597.66
2023-01-03T09:40:39.251Z,100595.41
2023-01-03T09:44:41.060Z,100601.75
2023-01-03T09:48:44.914Z,100594.31
2023-01-03T09:52:47.440Z,100600.66
2023-01-03T09:56:49.677Z,100599.31
2023-01-03T10:00:54.905Z,100598.16
2023-01-03T10:05:11.846Z,100592.56
2023-01-03T10:09:25.079Z,100599.53
2023-01-03T10:13:36.891Z,100602.84
2023-01-03T10:17:42.237Z,100603.72
2023-01-03T10:21:52.022Z,100610.06
2023-01-03T10:25:53.486Z,100605.66
2023-01-03T10:29:57.844Z,100599.09
2023-01-03T10:33:59.430Z,100597.53
2023-01-03T10:38:03.035Z,100597.53
2023-01-03T10:42:05.231Z,100592.97
2023-01-03T10:46:15.139Z,100598.88
2023-01-03T10:50:21.219Z,100582.56
2023-01-03T10:54:26.841Z,100584.56
2023-01-03T10:58:35.928Z,100603.00
2023-01-03T11:02:43.525Z,100589.63
2023-01-03T11:06:58.985Z,100585.47
2023-01-03T11:11:01.785Z,100589.75
2023-01-03T11:15:13.942Z,100582.25
2023-01-03T11:19:17.326Z,100589.34
2023-01-03T11:23:28.487Z,100572.19
2023-01-03T11:27:49.855Z,100573.50
2023-01-03T11:31:55.159Z,100560.19
2023-01-03T11:36:16.118Z,100560.56
2023-01-03T11:40:26.954Z,100553.34
2023-01-03T11:44:55.533Z,100547.09
2023-01-03T11:49:14.117Z,100556.94
2023-01-03T11:53:29.590Z,100557.94
2023-01-03T11:57:40.532Z,100568.59
2023-01-03T12:01:58.399Z,100562.56
2023-01-03T12:06:03.368Z,100562.56
2023-01-03T12:10:13.780Z,100565.16
2023-01-03T12:14:21.527Z,100551.78
2023-01-03T12:18:34.516Z,100548.41
2023-01-03T12:22:39.216Z,100556.41
2023-01-03T12:26:42.774Z,100553.50
2023-01-03T12:30:47.915Z,100559.28
2023-01-03T12:35:00.314Z,100552.53
2023-01-03T12:39:13.249Z,100549.06
2023-01-03T12:43:25.099Z,100549.50
2023-01-03T12:47:28.957Z,100552.41
2023-01-03T12:51:31.794Z,100541.91
2023-01-03T12:55:47.734Z,100534.78
2023-01-03T13:00:17.426Z,100535.84
2023-01-03T13:04:23.658Z,100536.47
2023-01-03T13:08:33.188Z,100527.22
2023-01-03T13:12:39.345Z,100520.91
2023-01-03T13:16:45.070Z,100529.72
2023-01-03T13:20:50.115Z,100525.56
2023-01-03T13:24:53.278Z,100524.72
2023-01-03T13:29:43.141Z,100526.78
2023-01-03T13:33:54.773Z,100526.47
2023-01-03T13:37:59.508Z,100538.25
2023-01-03T13:42:02.350Z,100527.16
2023-01-03T13:46:19.338Z,100531.16
2023-01-03T13:50:22.394Z,100531.41
2023-01-03T13:54:35.431Z,100519.41
2023-01-03T13:58:43.184Z,100526.47
2023-01-03T14:03:15.833Z,100537.75
2023-01-03T14:07:47.375Z,100536.53
2023-01-03T14:12:21.591Z,100534.00
2023-01-03T14:16:27.334Z,100539.25
2023-01-03T14:20:32.061Z,100543.66
2023-01-03T14:24:34.853Z,100552.22
2023-01-03T14:28:36.364Z,100549.16
2023-01-03T14:32:39.635Z,100556.44
2023-01-03T14:36:45.243Z,100551.72
2023-01-03T14:40:47.141Z,100564.78
2023-01-03T14:44:55.435Z,100556.97
2023-01-03T14:49:03.362Z,100558.53
2023-01-03T14:53:05.418Z,100568.03
2023-01-03T14:57:12.821Z,100569.16
2023-01-03T15:01:15.378Z,100566.03
2023-01-03T15:05:32.416Z,100575.69
2023-01-03T15:09:35.178Z,100578.16
2023-01-03T15:13:41.629Z,100590.59
2023-01-03T15:17:44.285Z,100589.03
2023-01-03T15:21:47.335Z,100592.13
2023-01-03T15:25:48.770Z,100585.47
2023-01-03T15:29:50.191Z,100588.00
2023-01-03T15:34:09.481Z,100590.44
2023-01-03T15:38:18.248Z,100603.19
2023-01-03T15:46:44.975Z,100615.13
2023-01-03T15:50:48.511Z,100613.34
2023-01-03T15:54:51.333Z,100617.56
2023-01-03T15:58:55.375Z,100627.78
2023-01-03T16:02:56.866Z,100620.78
2023-01-03T16:06:58.320Z,100619.91
2023-01-03T16:11:03.196Z,100622.84
2023-01-03T16:15:06.306Z,100629.81
2023-01-03T16:19:15.289Z,100629.38
2023-01-03T16:23:24.249Z,100633.50
2023-01-03T16:27:26.997Z,100622.72
2023-01-03T16:31:31.623Z,100627.97
2023-01-03T16:35:33.079Z,100627.94
2023-01-03T16:39:34.465Z,100631.22
2023-01-03T16:43:37.245Z,100633.63
2023-01-03T16:47:38.732Z,100628.00
2023-01-03T16:51:48.003Z,100622.59
2023-01-03T16:55:51.768Z,100629.25
2023-01-03T16:59:54.495Z,100633.00
2023-01-03T17:03:55.967Z,100636.94
2023-01-03T17:08:02.571Z,100624.19
2023-01-03T17:12:05.073Z,100622.19
2023-01-03T17:16:13.618Z,100621.53
2023-01-03T17:20:16.919Z,100627.03
2023-01-03T17:24:21.102Z,100630.56
2023-01-03T17:28:22.608Z,100634.56
2023-01-03T17:32:25.697Z,100636.56
2023-01-03T17:36:31.579Z,100639.91
2023-01-03T17:40:34.222Z,100648.00
2023-01-03T17:44:36.081Z,100636.03
2023-01-03T17:48:38.807Z,100644.94
2023-01-03T17:52:40.235Z,100648.03
2023-01-03T17:56:41.998Z,100640.25
2023-01-03T18:00:43.417Z,100651.59
2023-01-03T18:05:14.061Z,100660.63
2023-01-03T18:09:14.809Z,100654.94
2023-01-03T18:13:22.564Z,100655.78
2023-01-03T18:17:27.930Z,100647.78
2023-01-03T18:21:33.206Z,100652.56
2023-01-03T18:25:34.615Z,100657.94
2023-01-03T18:29:36.033Z,100657.19
2023-01-03T18:33:37.455Z,100654.88
2023-01-03T18:37:40.275Z,100654.09
2023-01-03T18:41:41.901Z,100659.38
2023-01-03T18:45:43.302Z,100660.50
2023-01-03T18:49:45.085Z,100662.56
2023-01-03T18:53:53.036Z,100671.09
2023-01-03T18:57:54.883Z,100675.41
2023-01-03T19:01:56.466Z,100667.91
2023-01-03T19:05:59.233Z,100663.41
2023-01-03T19:10:03.161Z,100678.69
2023-01-03T19:14:04.612Z,100658.06
2023-01-03T19:18:06.355Z,100658.25
2023-01-03T19:22:17.393Z,100660.38
2023-01-03T19:26:27.333Z,100648.78
2023-01-03T19:30:37.454Z,100655.97
2023-01-03T19:34:39.272Z,100654.63
2023-01-03T19:38:40.682Z,100656.75
2023-01-03T19:42:50.552Z,100656.69
2023-01-03T19:46:51.995Z,100651.97
2023-01-03T19:50:53.458Z,100651.09
2023-01-03T19:54:54.915Z,100647.78
2023-01-03T19:59:02.897Z,100651.38
2023-01-03T20:03:07.270Z,100634.34
2023-01-03T20:07:13.219Z,100641.44
2023-01-03T20:11:16.870Z,100644.09
2023-01-03T20:15:22.816Z,100647.00
2023-01-03T20:19:24.216Z,100647.38
2023-01-03T20:23:36.260Z,100651.59
2023-01-03T20:27:44.145Z,100640.16
2023-01-03T20:31:47.544Z,100641.44
2023-01-03T20:36:12.609Z,100639.69
2023-01-03T20:40:18.250Z,100637.34
2023-01-03T20:44:19.743Z,100630.97
2023-01-03T20:48:25.940Z,100632.75
2023-01-03T20:52:28.026Z,100632.75
2023-01-03T20:56:29.773Z,100636.59
2023-01-03T21:00:33.985Z,100624.50
2023-01-03T21:04:36.790Z,100624.97
2023-01-03T21:08:38.217Z,100621.97
2023-01-03T21:12:39.608Z,100625.72
2023-01-03T21:16:42.538Z,100612.41
2023-01-03T21:20:45.891Z,100616.44
2023-01-03T21:24:50.894Z,100625.53
2023-01-03T21:28:57.148Z,100614.47
2023-01-03T21:32:58.716Z,100614.66
2023-01-03T21:37:01.439Z,100608.50
2023-01-03T21:41:02.834Z,100607.91
2023-01-03T21:45:04.805Z,100609.66
2023-01-03T21:49:06.231Z,100610.53
2023-01-03T21:53:12.157Z,100599.81
2023-01-03T21:57:19.223Z,100589.38
2023-01-03T22:01:24.815Z,100592.84
2023-01-03T22:05:26.769Z,100600.22
2023-01-03T22:09:31.002Z,100589.22
2023-01-03T22:13:33.105Z,100593.44
2023-01-03T22:17:35.445Z,100590.88
2023-01-03T22:21:36.887Z,100582.31
2023-01-03T22:25:39.637Z,100590.81
2023-01-03T22:29:41.132Z,100591.16
2023-01-03T22:33:43.119Z,100587.31
2023-01-03T22:37:44.873Z,100585.47
2023-01-03T22:41:47.604Z,100583.22
2023-01-03T22:45:49.029Z,100583.78
2023-01-03T22:49:50.684Z,100577.28
2023-01-03T22:53:52.119Z,100581.00
2023-01-03T22:57:54.841Z,100575.94
2023-01-03T23:01:56.364Z,100571.16
2023-01-03T23:05:57.804Z,100562.88
2023-01-03T23:09:59.261Z,100559.44
2023-01-03T23:14:04.230Z,100561.75
2023-01-03T23:18:05.711Z,100553.81
2023-01-03T23:22:07.082Z,100561.19
2023-01-03T23:26:08.582Z,100548.72
2023-01-03T23:30:12.332Z,100552.34
2023-01-03T23:34:13.759Z,100536.56
2023-01-03T23:38:15.359Z,100542.59
2023-01-03T23:42:16.740Z,100530.81
2023-01-03T23:46:22.160Z,100529.53
2023-01-03T23:50:23.669Z,100528.41
2023-01-03T23:54:25.061Z,100522.94
2023-01-03T23:58:26.496Z,100511.84
